Time;durP1;ratioP1;P1;durP2;ratioP2;P2;SDS_P1;SDS_P2;PMS_P1;PMS_P2;Temp;Humidity;BMP_temperature;BMP_pressure;BME280_temperature;BME280_humidity;BME280_pressure;Samples;Min_cycle;Max_cycle;Signal;HPM_P1;HPM_P2
2022/07/13 00:01:56;;;;;;;8.68;6.45;;;;;;;21.74;89.79;99563.44;4891445;29;20051;-82
2022/07/13 00:04:22;;;;;;;9.65;5.95;;;;;;;21.79;88.16;99560.81;4910850;29;20036;-83
2022/07/13 00:06:47;;;;;;;10.27;6.20;;;;;;;21.86;87.76;99562.47;4908437;29;20055;-82
2022/07/13 00:09:19;;;;;;;8.88;5.55;;;;;;;21.78;87.84;99558.41;4905445;29;20058;-82
2022/07/13 00:11:44;;;;;;;7.60;5.93;;;;;;;21.72;87.87;99559.44;4908034;29;20140;-82
2022/07/13 00:14:10;;;;;;;8.63;6.30;;;;;;;21.79;87.67;99558.13;4890752;29;20036;-82
2022/07/13 00:16:41;;;;;;;7.32;5.93;;;;;;;21.73;87.70;99551.16;4909242;29;20142;-82
2022/07/13 00:19:12;;;;;;;8.23;5.47;;;;;;;21.72;87.74;99559.44;4899327;29;20506;-83
2022/07/13 00:21:40;;;;;;;8.35;6.00;;;;;;;21.72;87.73;99554.09;4909369;29;20036;-81
2022/07/13 00:24:09;;;;;;;9.80;5.88;;;;;;;21.94;87.19;99567.31;4897722;29;20479;-83
2022/07/13 00:26:34;;;;;;;7.35;5.80;;;;;;;21.72;87.36;99564.78;4907679;29;20036;-82
2022/07/13 00:29:02;;;;;;;6.03;5.40;;;;;;;22.05;86.69;99568.19;4906534;29;21872;-83
2022/07/13 00:31:28;;;;;;;9.30;5.90;;;;;;;21.91;86.53;99565.16;4896048;29;20032;-83
2022/07/13 00:33:53;;;;;;;11.40;6.43;;;;;;;21.93;86.53;99571.06;4910130;29;20036;-83
2022/07/13 00:36:19;;;;;;;7.47;6.25;;;;;;;22.00;86.25;99566.28;4906838;29;20024;-83
2022/07/13 00:38:44;;;;;;;6.18;5.53;;;;;;;22.18;85.81;99567.75;4893471;29;20168;-83
2022/07/13 00:41:10;;;;;;;8.68;6.43;;;;;;;22.24;85.38;99565.91;4890866;29;20055;-83
2022/07/13 00:43:35;;;;;;;6.13;5.10;;;;;;;22.27;85.06;99560.03;4909016;29;20475;-82
2022/07/13 00:46:01;;;;;;;6.60;5.38;;;;;;;22.25;85.33;99562.97;4890447;29;20025;-82
2022/07/13 00:48:27;;;;;;;7.35;6.15;;;;;;;22.11;85.90;99569.84;4909246;29;20025;-84
2022/07/13 00:50:53;;;;;;;7.05;5.35;;;;;;;22.34;85.45;99568.63;4889564;29;20494;-83
2022/07/13 00:53:19;;;;;;;8.88;5.65;;;;;;;22.32;85.98;99570.75;4910413;29;20474;-82
2022/07/13 00:55:48;;;;;;;9.38;5.30;;;;;;;22.08;86.98;99573.03;4907701;29;20051;-82
2022/07/13 00:58:13;;;;;;;6.38;5.55;;;;;;;22.39;86.26;99568.66;4910209;29;20036;-82
2022/07/13 01:00:39;;;;;;;8.00;5.15;;;;;;;22.30;86.56;99559.53;4905966;29;20118;-82
2022/07/13 01:03:05;;;;;;;8.20;5.45;;;;;;;22.26;86.78;99569.91;4906557;29;20068;-82
2022/07/13 01:05:31;;;;;;;6.13;5.20;;;;;;;22.10;87.30;99555.66;4906298;29;20542;-82
2022/07/13 01:07:56;;;;;;;6.53;5.43;;;;;;;22.25;87.50;99564.84;4910914;29;20035;-82
2022/07/13 01:10:22;;;;;;;8.98;5.75;;;;;;;22.28;87.86;99575.03;4873726;29;20064;-82
2022/07/13 01:12:48;;;;;;;7.32;5.07;;;;;;;22.51;87.43;99573.84;4909881;29;20503;-83
2022/07/13 01:15:15;;;;;;;6.07;5.00;;;;;;;22.62;87.32;99582.72;4895162;29;20044;-83
2022/07/13 01:17:41;;;;;;;8.75;5.75;;;;;;;22.62;87.62;99577.38;4904504;29;20028;-83
2022/07/13 01:20:08;;;;;;;7.55;5.53;;;;;;;22.31;89.06;99566.47;4871901;29;20036;-83
2022/07/13 01:22:51;;;;;;;5.97;5.25;;;;;;;22.42;89.26;99575.34;4890710;29;20104;-83
2022/07/13 01:25:18;;;;;;;7.70;6.20;;;;;;;22.31;90.14;99571.81;4887313;29;20024;-83
2022/07/13 01:27:46;;;;;;;8.77;5.88;;;;;;;22.46;89.96;99567.63;4889087;29;20035;-83
2022/07/13 01:30:12;;;;;;;8.00;5.90;;;;;;;22.16;90.96;99561.03;4889308;29;20054;-82
2022/07/13 01:32:50;;;;;;;9.82;6.47;;;;;;;22.28;91.09;99567.00;5089363;27;20382;-81
2022/07/13 01:35:17;;;;;;;7.45;6.50;;;;;;;21.92;93.48;99575.63;5089249;28;20020;-82
2022/07/13 01:37:43;;;;;;;14.85;7.28;;;;;;;21.95;93.37;99575.09;5085691;28;20111;-81
2022/07/13 01:40:10;;;;;;;8.27;7.00;;;;;;;22.01;94.04;99581.28;5088971;28;20024;-83
2022/07/13 01:42:44;;;;;;;9.00;6.88;;;;;;;22.12;94.01;99579.50;5087962;28;20038;-82
2022/07/13 01:45:11;;;;;;;11.63;8.32;;;;;;;21.79;95.69;99563.47;5088300;28;20040;-82
2022/07/13 01:47:50;;;;;;;9.25;7.90;;;;;;;21.70;96.76;99573.03;5087953;28;20367;-83
2022/07/13 01:50:19;;;;;;;13.43;9.48;;;;;;;21.58;97.90;99575.03;5088461;28;20390;-83
2022/07/13 01:52:45;;;;;;;12.43;9.18;;;;;;;21.65;97.96;99560.44;5087722;28;20024;-82
2022/07/13 01:55:12;;;;;;;12.27;9.02;;;;;;;21.81;97.89;99564.06;5088684;28;20021;-82
2022/07/13 01:57:38;;;;;;;10.90;9.75;;;;;;;21.56;99.04;99561.94;5087354;28;20028;-83
2022/07/13 02:00:08;;;;;;;12.35;10.25;;;;;;;21.53;99.25;99557.91;5070738;28;20024;-82
2022/07/13 02:02:33;;;;;;;16.95;10.48;;;;;;;21.47;100.00;99569.63;5088624;28;20111;-81
2022/07/13 02:05:02;;;;;;;12.02;9.95;;;;;;;21.24;100.00;99576.06;5087406;28;20050;-81
2022/07/13 02:07:28;;;;;;;12.13;9.63;;;;;;;21.49;100.00;99572.84;5088478;28;20119;-82
2022/07/13 02:09:53;;;;;;;12.88;10.13;;;;;;;21.41;100.00;99565.28;5087238;28;20036;-82
2022/07/13 02:12:19;;;;;;;12.30;9.90;;;;;;;21.31;100.00;99555.31;5088150;28;20074;-83
2022/07/13 02:14:46;;;;;;;12.77;9.55;;;;;;;21.32;100.00;99561.47;5088309;28;20059;-83
2022/07/13 02:17:12;;;;;;;14.02;10.07;;;;;;;21.33;100.00;99558.56;5070098;28;20028;-83
2022/07/13 02:19:37;;;;;;;10.75;9.30;;;;;;;21.29;100.00;99560.09;5088077;28;20033;-83
2022/07/13 02:22:03;;;;;;;12.00;9.45;;;;;;;21.25;100.00;99564.34;5086451;28;20085;-83
2022/07/13 02:24:29;;;;;;;10.15;9.07;;;;;;;21.34;100.00;99562.03;5086090;28;20044;-82
2022/07/13 02:26:54;;;;;;;12.13;9.45;;;;;;;20.86;100.00;99567.97;5088006;28;20116;-81
2022/07/13 02:29:21;;;;;;;9.82;8.82;;;;;;;21.06;100.00;99554.00;5088213;28;20032;-81
2022/07/13 02:31:47;;;;;;;10.10;8.57;;;;;;;21.14;100.00;99563.44;5086501;28;20063;-82
2022/07/13 02:34:12;;;;;;;10.77;7.82;;;;;;;21.12;100.00;99553.00;5088210;28;20043;-83
2022/07/13 02:36:38;;;;;;;12.07;8.43;;;;;;;21.19;100.00;99560.81;5087186;28;20474;-82
2022/07/13 02:39:03;;;;;;;9.95;7.97;;;;;;;21.24;100.00;99557.38;5086608;28;20024;-82
2022/07/13 02:41:29;;;;;;;10.30;7.85;;;;;;;21.10;100.00;99555.13;5070026;28;20059;-83
2022/07/13 02:43:55;;;;;;;8.68;7.85;;;;;;;21.32;100.00;99556.13;5074429;28;20031;-81
2022/07/13 02:46:20;;;;;;;9.07;7.93;;;;;;;21.39;100.00;99560.19;5074161;28;20020;-82
2022/07/13 02:48:46;;;;;;;12.02;8.05;;;;;;;21.31;100.00;99565.19;5074560;28;20062;-82
2022/07/13 02:51:11;;;;;;;9.55;7.75;;;;;;;21.08;100.00;99562.56;5073367;28;20035;-82
2022/07/13 02:53:37;;;;;;;10.85;9.10;;;;;;;21.08;100.00;99578.59;5074342;28;20470;-83
2022/07/13 02:56:06;;;;;;;11.88;9.02;;;;;;;20.84;100.00;99567.41;5074325;28;20501;-82
2022/07/13 02:58:32;;;;;;;11.45;9.57;;;;;;;20.64;100.00;99576.75;5071590;28;20394;-82
2022/07/13 03:00:57;;;;;;;9.23;7.68;;;;;;;21.10;100.00;99578.34;5073265;28;20047;-82
2022/07/13 03:03:23;;;;;;;9.65;8.48;;;;;;;21.22;100.00;99565.66;5072924;28;20159;-82
2022/07/13 03:05:49;;;;;;;11.25;8.85;;;;;;;21.30;100.00;99568.94;5073211;28;20393;-83
2022/07/13 03:08:14;;;;;;;9.32;8.02;;;;;;;21.36;100.00;99560.72;5074499;28;20024;-82
2022/07/13 03:10:40;;;;;;;11.82;8.32;;;;;;;21.19;100.00;99560.03;5072934;28;20028;-84
2022/07/13 03:13:06;;;;;;;12.93;8.88;;;;;;;21.06;100.00;99563.91;5072792;28;20025;-83
2022/07/13 03:15:32;;;;;;;12.35;8.45;;;;;;;20.92;100.00;99572.28;5073733;28;20054;-83
2022/07/13 03:17:58;;;;;;;14.57;8.57;;;;;;;20.88;100.00;99568.50;5072605;28;20501;-82
2022/07/13 03:20:24;;;;;;;9.55;8.55;;;;;;;20.61;100.00;99563.88;5069855;28;20033;-82
2022/07/13 03:22:49;;;;;;;9.48;8.52;;;;;;;20.59;100.00;99579.34;5055625;28;20043;-82
2022/07/13 03:25:15;;;;;;;11.82;8.95;;;;;;;20.56;100.00;99574.50;5073674;28;20031;-82
2022/07/13 03:27:41;;;;;;;10.88;9.32;;;;;;;20.44;100.00;99573.78;5072133;28;20104;-83
2022/07/13 03:30:07;;;;;;;9.43;8.13;;;;;;;20.58;100.00;99583.06;5073296;28;20063;-82
2022/07/13 03:32:33;;;;;;;11.35;9.32;;;;;;;20.58;100.00;99580.38;5073194;28;20055;-82
2022/07/13 03:34:59;;;;;;;9.40;8.50;;;;;;;20.49;100.00;99577.34;5073395;28;20028;-81
2022/07/13 03:37:24;;;;;;;15.00;10.02;;;;;;;20.55;100.00;99572.88;5072078;28;20020;-81
2022/07/13 03:39:50;;;;;;;11.50;9.02;;;;;;;20.09;100.00;99576.56;5073168;28;20043;-82
2022/07/13 03:42:16;;;;;;;11.38;9.60;;;;;;;20.14;100.00;99577.66;5073257;28;20073;-82
2022/07/13 03:44:41;;;;;;;13.63;9.68;;;;;;;20.29;100.00;99585.88;5072762;28;20044;-82
2022/07/13 03:47:07;;;;;;;16.10;10.30;;;;;;;20.23;100.00;99586.84;5070513;28;20047;-81
2022/07/13 03:49:33;;;;;;;15.65;10.93;;;;;;;20.15;100.00;99596.09;5072844;28;20029;-83
2022/07/13 03:51:58;;;;;;;14.05;11.68;;;;;;;20.33;100.00;99595.00;5072973;28;20033;-82
2022/07/13 03:54:24;;;;;;;16.55;11.38;;;;;;;20.23;100.00;99600.19;5070956;28;20032;-81
2022/07/13 03:56:49;;;;;;;18.83;11.85;;;;;;;20.49;100.00;99600.53;5065789;28;20063;-82
2022/07/13 03:59:15;;;;;;;18.50;11.98;;;;;;;20.31;100.00;99597.09;5071520;28;20381;-83
2022/07/13 04:01:42;;;;;;;13.52;11.50;;;;;;;20.00;100.00;99598.53;5072858;28;20024;-83
2022/07/13 04:04:08;;;;;;;15.45;10.25;;;;;;;20.43;100.00;99604.19;5071202;28;20059;-82
2022/07/13 04:06:34;;;;;;;12.48;8.50;;;;;;;20.30;100.00;99598.16;5070398;28;20052;-82
2022/07/13 04:08:59;;;;;;;11.20;7.95;;;;;;;20.16;100.00;99599.53;5071464;28;20029;-81
2022/07/13 04:11:28;;;;;;;11.60;6.07;;;;;;;19.97;100.00;99594.47;5071934;28;20029;-82
2022/07/13 04:13:53;;;;;;;10.10;6.35;;;;;;;19.92;100.00;99589.06;5070318;28;20522;-83
2022/07/13 04:16:20;;;;;;;8.30;5.78;;;;;;;19.82;100.00;99590.47;5069602;28;20036;-81
2022/07/13 04:18:45;;;;;;;8.00;5.82;;;;;;;19.59;100.00;99596.78;5071833;28;20489;-83
2022/07/13 04:21:13;;;;;;;8.80;5.40;;;;;;;19.64;100.00;99598.72;5069853;28;20041;-81
2022/07/13 04:23:40;;;;;;;9.95;5.43;;;;;;;19.53;100.00;99609.19;5072069;28;20040;-82
2022/07/13 04:26:05;;;;;;;8.73;5.68;;;;;;;19.66;100.00;99597.44;5072059;28;20028;-83
2022/07/13 04:28:31;;;;;;;10.43;5.57;;;;;;;19.67;100.00;99598.25;5072691;28;20020;-81
2022/07/13 04:30:58;;;;;;;9.15;4.93;;;;;;;19.67;100.00;99600.91;5072331;28;20068;-83
2022/07/13 04:33:23;;;;;;;12.70;5.80;;;;;;;19.70;100.00;99613.75;5054386;28;20076;-82
2022/07/13 04:35:49;;;;;;;13.15;6.03;;;;;;;19.49;100.00;99618.72;5071077;28;20119;-82
2022/07/13 04:38:15;;;;;;;12.25;5.38;;;;;;;19.25;100.00;99621.47;5070940;28;20024;-82
2022/07/13 04:40:41;;;;;;;8.52;4.88;;;;;;;19.62;100.00;99640.75;5072111;28;20036;-82
2022/07/13 04:43:07;;;;;;;11.00;4.80;;;;;;;19.46;100.00;99632.50;5070696;28;20040;-82
2022/07/13 04:45:33;;;;;;;8.02;4.45;;;;;;;19.46;100.00;99639.69;5070903;28;20433;-84
2022/07/13 04:47:59;;;;;;;11.45;4.57;;;;;;;19.27;100.00;99640.69;5072011;28;20028;-82
2022/07/13 04:50:25;;;;;;;16.02;4.65;;;;;;;19.17;100.00;99627.19;5071828;28;20024;-84
2022/07/13 04:52:50;;;;;;;10.55;4.57;;;;;;;19.48;100.00;99627.75;5070719;28;20371;-83
2022/07/13 04:55:17;;;;;;;10.70;5.38;;;;;;;18.79;100.00;99629.34;5069838;28;20031;-82
2022/07/13 04:57:44;;;;;;;16.80;5.85;;;;;;;18.89;100.00;99634.06;5071029;28;20547;-82
2022/07/13 05:00:10;;;;;;;12.75;5.13;;;;;;;18.79;100.00;99639.16;5066238;28;20389;-82
2022/07/13 05:02:36;;;;;;;14.68;5.93;;;;;;;19.10;100.00;99647.81;5054009;28;20078;-81
2022/07/13 05:05:03;;;;;;;18.00;5.47;;;;;;;19.15;100.00;99652.41;5072020;28;20111;-82
2022/07/13 05:07:29;;;;;;;17.75;5.95;;;;;;;19.18;100.00;99646.63;5070498;28;20033;-81
2022/07/13 05:09:56;;;;;;;16.35;5.25;;;;;;;19.26;100.00;99647.06;5070744;28;20030;-81
2022/07/13 05:12:21;;;;;;;20.98;6.30;;;;;;;19.25;100.00;99648.06;5070280;28;20028;-81
2022/07/13 05:14:48;;;;;;;18.88;5.85;;;;;;;18.98;100.00;99659.28;5070437;28;20032;-81
2022/07/13 05:17:14;;;;;;;17.90;6.18;;;;;;;18.84;100.00;99655.22;5069728;28;20082;-81
2022/07/13 05:19:40;;;;;;;21.40;6.10;;;;;;;19.06;100.00;99663.41;5071662;28;20024;-83
2022/07/13 05:22:05;;;;;;;20.58;4.90;;;;;;;19.46;100.00;99668.97;5071882;28;20040;-81
2022/07/13 05:24:31;;;;;;;22.85;6.18;;;;;;;19.03;100.00;99668.38;5071494;28;20360;-82
2022/07/13 05:26:56;;;;;;;21.75;5.25;;;;;;;19.37;100.00;99668.53;5070233;28;20479;-81
2022/07/13 05:29:22;;;;;;;14.27;4.78;;;;;;;19.42;100.00;99687.25;5053421;28;20035;-83
2022/07/13 05:31:48;;;;;;;16.55;5.25;;;;;;;19.43;100.00;99675.56;5069839;28;20048;-82
2022/07/13 05:34:14;;;;;;;14.48;4.75;;;;;;;19.41;100.00;99682.97;5069119;28;20375;-83
2022/07/13 05:36:40;;;;;;;13.50;4.72;;;;;;;19.47;100.00;99674.06;5070115;28;20025;-83
2022/07/13 05:39:05;;;;;;;14.35;5.07;;;;;;;19.76;100.00;99690.00;5071371;28;20363;-81
2022/07/13 05:41:32;;;;;;;15.15;4.70;;;;;;;19.26;100.00;99689.63;5070968;28;20028;-82
2022/07/13 05:43:59;;;;;;;17.40;4.93;;;;;;;19.07;99.67;99690.84;5069946;28;20089;-81
2022/07/13 05:46:25;;;;;;;12.20;4.50;;;;;;;18.67;100.00;99677.22;5071477;28;20035;-81
2022/07/13 05:48:51;;;;;;;15.50;4.72;;;;;;;18.91;98.96;99671.88;5071201;28;20478;-82
2022/07/13 05:51:16;;;;;;;13.05;4.15;;;;;;;18.91;97.75;99685.16;5052191;28;20032;-82
2022/07/13 05:53:42;;;;;;;14.77;4.30;;;;;;;19.02;97.41;99691.53;5069950;28;20028;-81
2022/07/13 05:56:09;;;;;;;12.05;4.40;;;;;;;18.96;95.85;99703.06;5070851;28;20040;-81
2022/07/13 05:58:35;;;;;;;13.20;4.25;;;;;;;19.09;95.57;99688.75;5069734;28;20033;-82
2022/07/13 06:01:01;;;;;;;11.65;3.75;;;;;;;18.95;95.30;99696.97;5071151;28;20036;-82
2022/07/13 06:03:26;;;;;;;13.65;4.00;;;;;;;19.09;92.83;99699.41;5070981;28;20440;-82
2022/07/13 06:05:52;;;;;;;12.55;3.58;;;;;;;19.14;92.15;99707.47;5052620;28;20029;-81
2022/07/13 06:08:18;;;;;;;11.95;3.38;;;;;;;19.04;91.46;99713.41;5068535;28;20037;-83
2022/07/13 06:10:43;;;;;;;11.52;3.45;;;;;;;18.69;92.05;99707.03;5069394;28;20426;-81
2022/07/13 06:13:09;;;;;;;11.82;3.45;;;;;;;19.42;90.37;99708.56;5070088;28;20036;-81
2022/07/13 06:15:34;;;;;;;20.42;3.63;;;;;;;19.20;90.62;99711.06;5069799;28;20067;-83
2022/07/13 06:18:00;;;;;;;10.40;3.17;;;;;;;19.40;90.03;99711.47;5068941;28;20028;-81
2022/07/13 06:20:26;;;;;;;10.98;3.13;;;;;;;19.14;90.38;99707.47;5071694;28;20601;-81
2022/07/13 06:23:15;;;;;;;10.88;3.85;;;;;;;19.09;89.46;99720.69;5064283;28;20119;-81
2022/07/13 06:25:41;;;;;;;8.63;3.30;;;;;;;19.02;90.13;99730.63;5069721;28;20033;-81
2022/07/13 06:28:07;;;;;;;9.48;3.30;;;;;;;18.75;89.68;99709.81;5067420;28;20033;-81
2022/07/13 06:30:34;;;;;;;9.57;3.35;;;;;;;18.62;89.67;99711.66;5069881;28;20043;-81
2022/07/13 06:33:00;;;;;;;9.77;3.40;;;;;;;18.97;88.60;99716.16;5065658;28;20033;-80
2022/07/13 06:35:26;;;;;;;10.93;3.28;;;;;;;18.82;89.14;99715.81;5071061;28;20537;-80
2022/07/13 06:37:52;;;;;;;7.65;2.92;;;;;;;19.05;88.15;99711.53;5072753;28;20116;-82
2022/07/13 06:40:18;;;;;;;11.32;3.72;;;;;;;19.41;86.88;99717.59;5053085;28;20146;-81
2022/07/13 06:42:44;;;;;;;6.65;2.95;;;;;;;19.48;87.05;99718.28;5053431;28;20439;-83
2022/07/13 06:45:10;;;;;;;10.45;2.90;;;;;;;19.00;87.32;99727.41;5069827;28;20033;-84
2022/07/13 06:47:37;;;;;;;6.45;2.75;;;;;;;19.30;85.90;99731.75;5067817;28;20379;-80
2022/07/13 06:50:03;;;;;;;9.90;2.92;;;;;;;19.54;85.47;99724.47;5069972;28;20405;-81
2022/07/13 06:52:29;;;;;;;12.77;3.10;;;;;;;19.07;86.22;99723.56;5071510;28;20462;-81
2022/07/13 06:54:55;;;;;;;9.38;3.20;;;;;;;19.09;85.37;99726.81;5073521;28;20040;-81
2022/07/13 06:57:20;;;;;;;8.50;2.65;;;;;;;18.92;85.31;99726.69;5069228;28;20033;-81
2022/07/13 06:59:46;;;;;;;9.30;2.53;;;;;;;19.44;83.86;99729.63;5070756;28;20020;-81
2022/07/13 07:02:11;;;;;;;7.28;2.50;;;;;;;19.09;83.93;99734.00;5070836;28;20039;-84
2022/07/13 07:04:37;;;;;;;8.48;2.33;;;;;;;18.50;84.32;99730.25;5054515;28;20040;-82
2022/07/13 07:07:02;;;;;;;8.50;2.63;;;;;;;18.47;82.91;99740.53;5067532;28;20070;-81
2022/07/13 07:09:28;;;;;;;8.40;2.25;;;;;;;18.24;83.23;99758.88;5067781;28;20028;-82
2022/07/13 07:11:54;;;;;;;6.60;2.35;;;;;;;18.15;83.28;99738.19;5088781;28;20511;-83
2022/07/13 07:14:19;;;;;;;8.63;2.25;;;;;;;18.42;82.68;99744.69;5065962;28;20041;-83
2022/07/13 07:16:46;;;;;;;4.00;1.77;;;;;;;18.46;82.16;99736.25;5072350;28;20028;-84
2022/07/13 07:19:11;;;;;;;6.47;2.00;;;;;;;17.98;82.69;99744.09;5071619;28;20131;-84
2022/07/13 07:21:37;;;;;;;6.03;2.00;;;;;;;18.00;82.41;99747.34;5071092;28;20103;-83
2022/07/13 07:24:04;;;;;;;4.25;1.60;;;;;;;17.81;82.83;99750.03;5069022;28;20071;-82
2022/07/13 07:26:32;;;;;;;4.75;2.00;;;;;;;17.42;83.51;99741.53;5051658;28;20033;-81
2022/07/13 07:28:58;;;;;;;6.32;1.88;;;;;;;17.69;84.25;99741.25;5068865;28;20035;-82
2022/07/13 07:31:25;;;;;;;6.45;2.05;;;;;;;18.22;83.32;99738.88;5066447;28;20044;-84
2022/07/13 07:33:51;;;;;;;7.45;1.77;;;;;;;18.04;82.91;99745.09;5073082;28;20032;-84
2022/07/13 07:36:16;;;;;;;4.10;1.98;;;;;;;17.91;83.47;99748.72;5071519;28;20779;-83
2022/07/13 07:38:43;;;;;;;3.97;1.70;;;;;;;17.81;83.74;99747.38;5072877;28;20032;-84
2022/07/13 07:41:10;;;;;;;7.70;2.90;;;;;;;17.81;84.54;99738.63;5072873;28;20452;-85
2022/07/13 07:43:37;;;;;;;5.25;2.25;;;;;;;17.39;84.84;99749.97;5072376;28;20035;-84
2022/07/13 07:46:03;;;;;;;4.70;1.83;;;;;;;17.93;83.86;99760.72;5068349;28;20033;-85
2022/07/13 07:48:29;;;;;;;5.70;2.15;;;;;;;17.55;84.55;99746.69;5071557;28;20482;-85
2022/07/13 07:50:54;;;;;;;4.47;1.95;;;;;;;17.66;85.21;99747.78;5069171;28;20124;-82
2022/07/13 07:53:20;;;;;;;6.22;2.20;;;;;;;17.89;84.58;99730.34;5070718;28;20043;-83
2022/07/13 07:55:46;;;;;;;8.50;2.28;;;;;;;17.84;85.19;99727.56;5071568;28;20052;-83
2022/07/13 07:58:13;;;;;;;4.63;2.40;;;;;;;18.26;83.91;99750.66;5071455;28;20112;-83
2022/07/13 08:00:44;;;;;;;7.53;2.10;;;;;;;18.23;83.15;99767.06;5088384;28;20047;-83
2022/07/13 08:03:10;;;;;;;4.80;1.85;;;;;;;17.83;84.23;99747.97;5051621;28;20081;-83
2022/07/13 08:05:36;;;;;;;8.68;2.38;;;;;;;17.85;83.69;99755.72;5065869;28;20053;-81
2022/07/13 08:08:02;;;;;;;6.40;1.90;;;;;;;18.23;83.21;99756.44;5070389;28;20123;-82
2022/07/13 08:10:28;;;;;;;9.52;1.80;;;;;;;18.32;82.61;99744.47;5054955;28;20031;-82
2022/07/13 08:12:55;;;;;;;2.95;1.90;;;;;;;17.85;82.66;99756.53;5069671;28;20406;-81
2022/07/13 08:15:22;;;;;;;3.58;1.63;;;;;;;18.05;81.95;99757.31;5070234;28;20513;-83
2022/07/13 08:17:48;;;;;;;3.00;1.70;;;;;;;18.16;82.71;99756.53;5087589;28;20064;-82
2022/07/13 08:20:13;;;;;;;3.75;1.83;;;;;;;18.54;82.22;99752.69;5053768;28;20117;-83
2022/07/13 08:22:39;;;;;;;4.60;1.73;;;;;;;18.69;81.31;99765.53;5071701;28;20039;-81
2022/07/13 08:25:05;;;;;;;5.03;1.77;;;;;;;18.68;81.78;99769.25;5071868;28;20043;-82
2022/07/13 08:27:32;;;;;;;5.70;2.10;;;;;;;18.70;80.97;99756.53;5069241;28;20067;-83
2022/07/13 08:29:59;;;;;;;4.40;1.80;;;;;;;18.80;80.59;99771.09;5070448;28;20032;-83
2022/07/13 08:32:25;;;;;;;11.55;2.55;;;;;;;18.82;80.46;99756.53;5070266;28;20406;-83
2022/07/13 08:40:24;;;;;;;4.20;1.80;;;;;;;18.44;80.00;99759.59;5102193;28;20060;-82
2022/07/13 08:42:53;;;;;;;7.88;1.85;;;;;;;18.48;79.94;99769.56;5050131;28;20075;-83
2022/07/13 08:45:18;;;;;;;4.53;1.92;;;;;;;18.77;80.67;99763.56;5070882;28;20116;-82
2022/07/13 08:47:47;;;;;;;6.82;1.88;;;;;;;19.05;80.55;99773.53;5067241;28;20037;-80
2022/07/13 08:50:12;;;;;;;6.28;1.80;;;;;;;18.74;79.06;99766.69;5063291;28;20032;-83
2022/07/13 08:52:41;;;;;;;6.57;2.33;;;;;;;18.61;79.48;99757.88;5045017;28;20040;-82
2022/07/13 08:55:08;;;;;;;5.22;2.30;;;;;;;18.88;79.11;99757.47;5048009;28;20040;-82
2022/07/13 08:57:41;;;;;;;4.32;1.60;;;;;;;19.03;79.55;99764.16;5048431;28;20500;-83
2022/07/13 09:00:11;;;;;;;5.00;1.95;;;;;;;19.26;78.21;99756.19;5079664;28;20044;-82
2022/07/13 09:02:37;;;;;;;2.85;1.90;;;;;;;19.36;78.75;99752.91;5046170;28;20020;-82
2022/07/13 09:05:05;;;;;;;6.47;1.95;;;;;;;19.43;77.44;99744.78;5065528;28;20054;-82
2022/07/13 09:07:32;;;;;;;2.90;1.88;;;;;;;19.76;78.12;99751.28;5046696;28;21487;-82
2022/07/13 09:09:59;;;;;;;8.27;2.38;;;;;;;19.84;78.38;99758.88;5051650;28;20120;-83
2022/07/13 09:12:27;;;;;;;7.55;2.20;;;;;;;19.77;79.50;99752.88;5062012;28;20032;-82
2022/07/13 09:15:05;;;;;;;5.72;2.35;;;;;;;19.61;78.90;99764.28;5066726;28;20040;-82
2022/07/13 09:17:43;;;;;;;6.55;2.25;;;;;;;19.55;78.39;99766.88;5067450;28;20032;-83
2022/07/13 09:20:11;;;;;;;5.00;2.45;;;;;;;19.52;78.25;99767.34;5049256;28;20429;-82
2022/07/13 09:22:53;;;;;;;6.10;2.05;;;;;;;19.72;77.65;99760.78;5063152;28;20024;-81
2022/07/13 09:25:32;;;;;;;6.13;3.08;;;;;;;19.34;77.78;99759.50;5049793;28;20505;-82
2022/07/13 09:28:09;;;;;;;7.93;2.85;;;;;;;19.45;77.74;99771.19;5067546;28;20385;-82
2022/07/13 09:30:40;;;;;;;4.47;2.50;;;;;;;19.94;77.40;99768.16;5068585;28;20510;-82
2022/07/13 09:33:06;;;;;;;6.13;3.03;;;;;;;19.89;77.31;99757.38;5067175;28;20032;-82
2022/07/13 09:35:49;;;;;;;7.00;3.65;;;;;;;19.80;77.52;99752.41;5069330;28;20043;-82
2022/07/13 09:38:38;;;;;;;5.00;2.83;;;;;;;20.29;76.89;99764.50;5095654;28;20083;-83
2022/07/13 09:41:19;;;;;;;6.45;2.78;;;;;;;20.37;77.17;99782.75;5053471;28;20028;-83
2022/07/13 09:47:01;;;;;;;8.88;3.58;;;;;;;20.03;75.76;99772.03;5067680;28;20051;-81
2022/07/13 09:49:44;;;;;;;8.25;3.72;;;;;;;20.26;76.02;99776.44;5066188;28;20082;-81
2022/07/13 09:52:16;;;;;;;6.77;3.57;;;;;;;20.52;76.03;99768.06;5066826;28;20551;-81
2022/07/13 09:54:45;;;;;;;6.32;3.15;;;;;;;20.44;76.40;99768.44;5087942;28;20479;-83
2022/07/13 09:57:13;;;;;;;7.50;3.45;;;;;;;20.47;75.12;99766.09;5073658;28;20060;-84
2022/07/13 09:59:41;;;;;;;6.25;3.08;;;;;;;20.73;75.28;99779.81;5073466;28;20024;-82
2022/07/13 10:02:08;;;;;;;4.43;3.45;;;;;;;21.08;73.58;99775.31;5068326;28;20028;-82
2022/07/13 10:04:37;;;;;;;13.18;3.85;;;;;;;20.71;73.47;99770.47;5056044;28;20054;-82
2022/07/13 10:07:07;;;;;;;7.45;4.05;;;;;;;20.94;73.40;99751.63;5072595;28;20036;-81
2022/07/13 10:09:37;;;;;;;11.82;4.60;;;;;;;20.76;73.64;99768.69;5090234;28;20441;-81
2022/07/13 10:12:11;;;;;;;8.95;4.45;;;;;;;20.63;74.34;99769.81;5070641;28;20029;-82
2022/07/13 10:14:38;;;;;;;10.55;4.70;;;;;;;20.94;74.40;99772.97;5071865;28;20130;-82
2022/07/13 10:17:14;;;;;;;10.32;4.60;;;;;;;21.26;73.37;99772.34;5052474;28;20036;-82
2022/07/13 10:19:48;;;;;;;9.80;4.07;;;;;;;21.04;73.12;99774.19;5071487;28;20074;-81
2022/07/13 10:22:21;;;;;;;8.45;4.57;;;;;;;21.20;74.12;99772.53;5073342;28;20025;-81
2022/07/13 10:24:54;;;;;;;8.52;4.40;;;;;;;21.13;73.78;99778.03;5054224;28;20032;-80
2022/07/13 10:27:22;;;;;;;14.00;5.30;;;;;;;21.05;73.34;99781.13;5053841;28;20500;-82
2022/07/13 10:29:58;;;;;;;8.25;4.25;;;;;;;20.94;73.61;99761.50;5073600;28;20028;-81
2022/07/13 10:32:28;;;;;;;9.13;4.40;;;;;;;21.04;72.63;99774.97;5051788;28;20497;-83
2022/07/13 10:35:01;;;;;;;10.93;4.60;;;;;;;21.34;72.19;99772.97;5066908;28;20075;-83
2022/07/13 10:37:27;;;;;;;9.20;4.70;;;;;;;21.34;69.32;99780.97;5075252;28;20086;-83
2022/07/13 10:40:14;;;;;;;8.63;4.45;;;;;;;21.53;69.29;99776.94;5057549;28;20115;-83
2022/07/13 10:42:59;;;;;;;9.27;4.32;;;;;;;21.81;69.44;99785.84;5103448;28;20433;-84
2022/07/13 10:45:31;;;;;;;8.30;3.92;;;;;;;21.62;67.50;99779.97;5057038;28;20040;-84
2022/07/13 10:48:16;;;;;;;11.00;4.40;;;;;;;21.60;69.18;99771.41;5088416;28;20512;-84
2022/07/13 10:50:57;;;;;;;10.38;5.20;;;;;;;21.34;69.51;99772.97;5073383;28;20086;-83
2022/07/13 10:53:50;;;;;;;12.95;5.03;;;;;;;21.61;68.88;99778.34;5056655;28;20445;-84
2022/07/13 10:56:20;;;;;;;9.07;4.47;;;;;;;21.40;67.04;99763.94;5069207;28;20444;-84
2022/07/13 10:58:50;;;;;;;8.60;4.07;;;;;;;21.72;68.47;99771.28;5074773;28;20028;-83
2022/07/13 11:01:36;;;;;;;10.25;4.78;;;;;;;21.77;69.96;99773.22;5072077;28;20488;-84
2022/07/13 11:04:03;;;;;;;8.00;4.72;;;;;;;21.77;69.63;99775.91;5055751;28;20417;-83
2022/07/13 11:06:29;;;;;;;11.57;5.13;;;;;;;21.77;69.82;99766.00;5073039;28;20035;-84
2022/07/13 11:09:18;;;;;;;7.68;4.50;;;;;;;21.86;69.45;99778.94;5074473;28;20028;-84
2022/07/13 11:11:48;;;;;;;9.80;4.20;;;;;;;22.05;68.14;99782.88;5103007;28;20116;-85
2022/07/13 11:14:35;;;;;;;9.35;4.70;;;;;;;21.53;66.65;99795.63;5073494;28;20500;-82
2022/07/13 11:17:14;;;;;;;8.32;4.60;;;;;;;21.93;65.07;99774.19;5072116;28;20103;-83
2022/07/13 11:19:56;;;;;;;8.98;4.63;;;;;;;21.86;65.97;99784.28;5101287;28;20505;-83
2022/07/13 11:22:23;;;;;;;9.02;4.97;;;;;;;21.88;65.32;99782.16;5050762;28;20996;-83
2022/07/13 11:25:28;;;;;;;5.95;4.70;;;;;;;22.16;64.37;99769.56;5072553;28;20376;-82
2022/07/13 11:28:12;;;;;;;4.97;4.32;;;;;;;22.24;63.72;99782.50;5069741;28;20062;-82
2022/07/13 11:30:45;;;;;;;5.72;4.10;;;;;;;22.28;65.10;99788.94;5067256;28;20054;-84
2022/07/13 11:33:11;;;;;;;6.28;4.20;;;;;;;22.27;66.13;99776.66;5071967;28;20039;-82
2022/07/13 11:35:38;;;;;;;8.13;4.10;;;;;;;22.12;66.32;99790.69;5071299;28;20032;-83
2022/07/13 11:38:07;;;;;;;6.65;4.05;;;;;;;22.06;66.04;99789.81;5070197;28;20020;-83
2022/07/13 11:40:34;;;;;;;10.15;4.22;;;;;;;22.19;66.91;99777.09;5064014;28;20056;-84